Key West, FL

1:16 PM EDT on August 27, 2014 (GMT -0400)
Big Coppitt Key Gulfside | Change Station
CLOSE
Current Station
Personal Weather Station
Location: Key West, FL
Elevation: 31 ft
Nearby Weather Stations

Elev 31 ft 24.60 °N, 81.67 °W | Updated 3 minutes ago

Mostly Cloudy
Mostly Cloudy
87.8 °F
Feels Like 103 °F
N
9.4
Wind Variable Wind from East

Today
High -- | Low -- °F
--% Chance of Precip.
Yesterday
High -- | Low -- °F
Precip. -- in
7:05 AM 7:49 PM
Waxing Crescent, 4% visible
Pressure 29.93 in
Visibility 10.0 miles
Clouds Scattered Clouds 2700 ft
Mostly Cloudy 6000 ft
Heat Index 103 °F
Dew Point 79 °F
Humidity 75%
Rainfall 0.34 in
Snow Depth Not available.
UV 8 out of 12
Pollen 5.00 out of 12
Air Quality Not available.
Flu Activity Not available.
METAR KNQX 271653Z 09012KT 10SM SCT027 BKN060 29/26 A2993 RMK AO2 RAB15E44 SLP134 P0031 T02890256 $

More Conditions Fewer Conditions

Pressure 29.93 in
Visibility 10.0 miles
Clouds Scattered Clouds 2700 ft
Mostly Cloudy 6000 ft
Heat Index 103 °F
Dew Point 79 °F
Humidity 75%
Rainfall 0.34 in
Snow Depth Not available.
UV 8 out of 12
Pollen 5.00 out of 12
Air Quality Not available.
Flu Activity Not available.
METAR KNQX 271653Z 09012KT 10SM SCT027 BKN060 29/26 A2993 RMK AO2 RAB15E44 SLP134 P0031 T02890256 $

More Conditions Fewer Conditions

Nowcast | as of 12:25 PM EDT on August 27, 2014

Through 130 PM...widely separated showers and isolated thunderstorms will impact the Florida Keys...as well as nearshore and offshore waters surrounding the island chain. These showers and storms will move to the northwest at around 10 knots. The strongest storms will produce wind gusts near 25 knots...brief...heavy rain...temporarily reducing the visibility to near two miles...and an occasional lightning strike. Over land...the most likely area to see rainfall will be from Boca Chica to Sugarloaf Key. The majority of showers and storms will be located just south of the Marquesas Keys.

×

10-Day Weather Forecast

Almanac

Astronomy

Aug. 27, 2014 Rise Set
Actual Time 7:05 AM EDT 7:49 PM EDT
Civil Twilight 6:42 AM EDT 8:13 PM EDT
Nautical Twilight 6:15 AM EDT 8:40 PM EDT
Astronomical Twilight 5:47 AM EDT 9:08 PM EDT
Moon 8:44 AM EDT 9:00 PM EDT
Length of Visible Light 13h 30m
Length of Day
12h 44m
Tomorrow will be 1m 21s shorter.
Waxing Crescent, 4% of the Moon is Illuminated
Today
Waxing Crescent
Sep 2
First Quarter
Sep 8
Full
Sep 15
Last Quarter
Sep 24
New

Today's Extremes

State Highs State Lows

Community

WunderPhotos

Upload Photos

1,747,728 photos uploaded!

Nearby

Snow Depth

Station Depth Elevation
No new snow has been reported.

Earthquake Activity

City Distance Mag. Time & Date
No recent earthquake activity has been reported nearby.
Minimum magnitude displayed is 2.5.

Coastal Water Temperatures

Place Temperature
Key West, FL 88.0 °F
Vaca Key, FL 87.1 °F

Nearby Weather Stations